Time;durP1;ratioP1;P1;durP2;ratioP2;P2;SDS_P1;SDS_P2;PMS_P1;PMS_P2;Temp;Humidity;BMP_temperature;BMP_pressure;BME280_temperature;BME280_humidity;BME280_pressure;Samples;Min_cycle;Max_cycle;Signal;HPM_P1;HPM_P2
2023/12/19 00:00:40;;;;;;;58.10;31.23;;;6.80;99.90;;;;;;4901073;29;20114;-79
2023/12/19 00:03:05;;;;;;;52.20;30.60;;;6.90;99.90;;;;;;4900559;29;20481;-82
2023/12/19 00:05:31;;;;;;;55.38;29.40;;;6.90;99.90;;;;;;4900835;29;20043;-82
2023/12/19 00:07:56;;;;;;;61.63;29.70;;;6.90;99.90;;;;;;4885274;29;20064;-82
2023/12/19 00:10:22;;;;;;;55.85;29.92;;;6.90;99.90;;;;;;4885053;29;20076;-81
2023/12/19 00:12:48;;;;;;;56.33;30.45;;;6.90;99.90;;;;;;4884669;29;20422;-81
2023/12/19 00:15:13;;;;;;;58.60;31.50;;;6.90;99.90;;;;;;4917626;29;20071;-81
2023/12/19 00:17:40;;;;;;;62.08;32.22;;;6.90;99.90;;;;;;4917976;29;20040;-80
2023/12/19 00:20:06;;;;;;;56.63;31.33;;;6.90;99.90;;;;;;4900484;29;20207;-80
2023/12/19 00:22:32;;;;;;;56.75;31.27;;;6.90;99.90;;;;;;4900122;29;20032;-81
2023/12/19 00:24:58;;;;;;;59.13;30.98;;;6.90;99.90;;;;;;4885425;29;20033;-80
2023/12/19 00:27:23;;;;;;;55.88;30.52;;;6.90;99.90;;;;;;4900002;29;20465;-79
2023/12/19 00:29:49;;;;;;;51.35;29.27;;;7.00;99.90;;;;;;4869744;29;20469;-81
2023/12/19 00:32:15;;;;;;;56.15;30.77;;;7.00;99.90;;;;;;4884721;29;20036;-81
2023/12/19 00:34:40;;;;;;;60.08;30.65;;;7.00;99.90;;;;;;4868913;29;20122;-81
2023/12/19 00:37:06;;;;;;;53.08;29.05;;;7.00;99.90;;;;;;4884569;29;20040;-81
2023/12/19 00:39:32;;;;;;;57.80;30.50;;;7.00;99.90;;;;;;4869166;29;20043;-81
2023/12/19 00:41:57;;;;;;;57.25;30.25;;;7.00;99.90;;;;;;4900020;29;20051;-82
2023/12/19 00:44:23;;;;;;;54.13;29.80;;;7.00;99.90;;;;;;4884483;29;20060;-81
2023/12/19 00:46:48;;;;;;;59.08;30.70;;;7.00;99.90;;;;;;4885065;29;20039;-75
2023/12/19 00:49:14;;;;;;;59.67;32.25;;;7.00;99.90;;;;;;4917137;29;20039;-78
2023/12/19 00:51:40;;;;;;;53.75;29.55;;;7.00;99.90;;;;;;4884486;29;20459;-78
2023/12/19 00:54:05;;;;;;;57.58;29.63;;;7.00;99.90;;;;;;4917096;29;20088;-78
2023/12/19 00:56:32;;;;;;;55.05;29.60;;;7.00;99.90;;;;;;4884789;29;20452;-78
2023/12/19 00:58:59;;;;;;;54.40;29.15;;;7.00;99.90;;;;;;4900162;29;20131;-78
2023/12/19 01:01:25;;;;;;;52.60;29.60;;;7.10;99.90;;;;;;4916904;29;20025;-78
2023/12/19 01:03:51;;;;;;;51.72;29.15;;;7.10;99.90;;;;;;4899920;29;20113;-79
2023/12/19 01:06:16;;;;;;;54.53;28.85;;;7.10;99.90;;;;;;4884341;29;20561;-78
2023/12/19 01:08:42;;;;;;;50.53;28.98;;;7.10;99.90;;;;;;4900163;29;20508;-78
2023/12/19 01:11:09;;;;;;;55.85;30.27;;;7.10;99.90;;;;;;4869998;29;20029;-78
2023/12/19 01:13:38;;;;;;;53.40;28.83;;;7.10;99.90;;;;;;4900275;29;20084;-77
2023/12/19 01:16:04;;;;;;;55.55;28.33;;;7.10;99.90;;;;;;4917006;29;20080;-78
2023/12/19 01:18:30;;;;;;;60.40;30.90;;;7.10;99.90;;;;;;4916866;29;20087;-77
2023/12/19 01:20:56;;;;;;;56.80;29.30;;;7.20;99.90;;;;;;4900351;29;20374;-78
2023/12/19 01:23:23;;;;;;;58.60;30.77;;;7.20;99.90;;;;;;4900235;29;20032;-77
2023/12/19 01:25:48;;;;;;;53.72;30.10;;;7.20;99.90;;;;;;4903994;29;20035;-78
2023/12/19 01:28:14;;;;;;;56.05;30.70;;;7.20;99.90;;;;;;4904063;29;20036;-78
2023/12/19 01:30:41;;;;;;;62.40;31.08;;;7.20;99.90;;;;;;4904365;29;20036;-77
2023/12/19 01:33:09;;;;;;;59.75;29.73;;;7.20;99.90;;;;;;4920672;29;20037;-77
2023/12/19 01:35:35;;;;;;;58.47;30.58;;;7.10;99.90;;;;;;4920813;29;20033;-77
2023/12/19 01:38:01;;;;;;;62.95;29.52;;;7.10;99.90;;;;;;4921359;29;20517;-77
2023/12/19 01:40:31;;;;;;;58.88;31.10;;;7.10;99.90;;;;;;4903735;29;20075;-77
2023/12/19 01:43:01;;;;;;;58.10;30.73;;;7.20;99.90;;;;;;4904658;29;20484;-77
2023/12/19 01:45:29;;;;;;;54.55;30.20;;;7.20;99.90;;;;;;4903491;29;20493;-76
2023/12/19 01:47:55;;;;;;;59.15;31.83;;;7.20;99.90;;;;;;4920852;29;20059;-76
2023/12/19 01:50:21;;;;;;;60.30;31.38;;;7.20;99.90;;;;;;4920948;29;20111;-76
2023/12/19 01:52:53;;;;;;;59.50;31.63;;;7.20;99.90;;;;;;4920704;29;20028;-76
2023/12/19 01:55:20;;;;;;;65.20;32.38;;;7.20;99.90;;;;;;4904333;29;20048;-76
2023/12/19 01:57:46;;;;;;;55.47;29.00;;;7.20;99.90;;;;;;4904222;29;20067;-76
2023/12/19 02:00:13;;;;;;;57.13;30.65;;;7.20;99.90;;;;;;4920127;29;20465;-76
2023/12/19 02:02:42;;;;;;;57.17;30.38;;;7.20;99.90;;;;;;4903408;29;20024;-76
2023/12/19 02:05:08;;;;;;;57.08;28.20;;;7.20;99.90;;;;;;4903318;29;20541;-76
2023/12/19 02:07:34;;;;;;;53.38;29.65;;;7.30;99.90;;;;;;4903051;29;20028;-76
2023/12/19 02:10:00;;;;;;;58.72;29.92;;;7.30;99.90;;;;;;4903472;29;20083;-76
2023/12/19 02:12:26;;;;;;;56.67;30.17;;;7.30;99.90;;;;;;4888271;29;20043;-76
2023/12/19 02:14:53;;;;;;;55.30;29.02;;;7.30;99.90;;;;;;4903711;29;20036;-76
2023/12/19 02:17:19;;;;;;;53.22;28.75;;;7.20;99.90;;;;;;4920469;29;20029;-76
2023/12/19 02:19:49;;;;;;;57.45;29.58;;;7.20;99.90;;;;;;4903449;29;20139;-76
2023/12/19 02:22:15;;;;;;;54.88;28.70;;;7.20;99.90;;;;;;4919887;29;20091;-76
2023/12/19 02:24:41;;;;;;;55.35;29.55;;;7.30;99.90;;;;;;4902959;29;20035;-76
2023/12/19 02:27:08;;;;;;;57.95;30.48;;;7.30;99.90;;;;;;4919960;29;20087;-76
2023/12/19 02:29:34;;;;;;;57.50;29.63;;;7.20;99.90;;;;;;4887577;29;20397;-76
2023/12/19 02:32:00;;;;;;;54.53;29.33;;;7.20;99.90;;;;;;4919694;29;20099;-76
2023/12/19 02:34:26;;;;;;;63.78;31.50;;;7.20;99.90;;;;;;4920194;29;20051;-76
2023/12/19 02:36:52;;;;;;;52.15;28.63;;;7.20;99.90;;;;;;4903180;29;20119;-76
2023/12/19 02:39:17;;;;;;;53.42;29.35;;;7.20;99.90;;;;;;4919546;29;20311;-76
2023/12/19 02:41:43;;;;;;;55.50;29.27;;;7.20;99.90;;;;;;4920097;29;20032;-76
2023/12/19 02:44:10;;;;;;;55.92;30.30;;;7.30;99.90;;;;;;4919114;29;20084;-77
2023/12/19 02:46:36;;;;;;;52.50;29.83;;;7.30;99.90;;;;;;4902432;29;20048;-77
2023/12/19 02:49:02;;;;;;;57.97;30.20;;;7.30;99.90;;;;;;4887486;29;20499;-77
2023/12/19 02:51:29;;;;;;;53.80;29.75;;;7.30;99.90;;;;;;4902750;29;20466;-76
2023/12/19 02:53:56;;;;;;;52.13;29.05;;;7.30;99.90;;;;;;4919473;29;20028;-76
2023/12/19 02:56:23;;;;;;;51.80;30.13;;;7.30;99.90;;;;;;4919700;29;20112;-77
2023/12/19 02:58:48;;;;;;;51.67;28.60;;;7.30;99.90;;;;;;4919215;29;20035;-77
2023/12/19 03:01:14;;;;;;;56.85;29.02;;;7.30;99.90;;;;;;4919454;29;20066;-77
2023/12/19 03:03:40;;;;;;;56.85;29.60;;;7.30;99.90;;;;;;4902547;29;20028;-78
2023/12/19 03:06:06;;;;;;;65.65;31.42;;;7.30;99.90;;;;;;4919262;29;20040;-76
2023/12/19 03:08:34;;;;;;;56.55;30.40;;;7.30;99.90;;;;;;4886987;29;20206;-77
2023/12/19 03:10:59;;;;;;;51.70;29.27;;;7.30;99.90;;;;;;4902977;29;20076;-77
2023/12/19 03:13:25;;;;;;;53.65;29.33;;;7.30;99.90;;;;;;4902082;29;20437;-77
2023/12/19 03:15:51;;;;;;;55.97;29.85;;;7.30;99.90;;;;;;4919148;29;20036;-77
2023/12/19 03:18:23;;;;;;;59.70;29.80;;;7.30;99.90;;;;;;4918852;29;20385;-78
2023/12/19 03:20:49;;;;;;;57.38;29.67;;;7.30;99.90;;;;;;4919468;29;20028;-78
2023/12/19 03:23:15;;;;;;;59.30;30.30;;;7.30;99.90;;;;;;4886919;29;20092;-78
2023/12/19 03:25:41;;;;;;;61.45;30.92;;;7.30;99.90;;;;;;4901887;29;20032;-78
2023/12/19 03:28:07;;;;;;;57.13;30.63;;;7.30;99.90;;;;;;4902117;29;20028;-78
2023/12/19 03:30:32;;;;;;;54.45;30.88;;;7.30;99.90;;;;;;4918836;29;20374;-78
2023/12/19 03:32:58;;;;;;;63.92;33.35;;;7.30;99.90;;;;;;4902363;29;20123;-77
2023/12/19 03:35:23;;;;;;;63.63;32.42;;;7.30;99.90;;;;;;4901948;29;20036;-78
2023/12/19 03:37:50;;;;;;;63.33;31.75;;;7.30;99.90;;;;;;4886801;29;20183;-77
2023/12/19 03:40:16;;;;;;;62.90;31.65;;;7.40;99.90;;;;;;4901932;29;20103;-77
2023/12/19 03:42:42;;;;;;;63.90;31.38;;;7.40;99.90;;;;;;4918015;29;20036;-78
2023/12/19 03:45:08;;;;;;;61.90;29.88;;;7.40;99.90;;;;;;4919029;29;20347;-76
2023/12/19 03:47:34;;;;;;;58.45;31.65;;;7.40;99.90;;;;;;4900679;29;20040;-75
2023/12/19 03:50:00;;;;;;;65.05;32.67;;;7.40;99.90;;;;;;4901446;29;20055;-75
2023/12/19 03:52:26;;;;;;;63.65;31.08;;;7.40;99.90;;;;;;4901193;29;20036;-76
2023/12/19 03:54:52;;;;;;;60.05;29.48;;;7.40;99.90;;;;;;4900805;29;20040;-76
2023/12/19 03:57:17;;;;;;;54.55;28.60;;;7.40;99.90;;;;;;4901100;29;20036;-76
2023/12/19 03:59:44;;;;;;;57.40;29.85;;;7.40;99.90;;;;;;4917676;29;20119;-76
2023/12/19 04:02:10;;;;;;;52.35;28.38;;;7.50;99.90;;;;;;4917906;29;20028;-76
2023/12/19 04:04:36;;;;;;;45.35;27.55;;;7.50;99.90;;;;;;4917884;29;20116;-76
2023/12/19 04:07:01;;;;;;;47.25;27.98;;;7.50;99.90;;;;;;4917830;29;20122;-76
2023/12/19 04:09:27;;;;;;;43.75;25.42;;;7.50;99.90;;;;;;4921724;29;20036;-78
2023/12/19 04:11:53;;;;;;;48.42;26.00;;;7.50;99.90;;;;;;4892696;29;20040;-78
2023/12/19 04:14:19;;;;;;;46.92;25.33;;;7.50;99.90;;;;;;4921115;29;20132;-77
2023/12/19 04:16:45;;;;;;;49.58;26.38;;;7.50;99.90;;;;;;4922192;29;20112;-76
2023/12/19 04:19:11;;;;;;;45.58;25.95;;;7.50;99.90;;;;;;4922717;29;20032;-75
2023/12/19 04:21:37;;;;;;;38.95;23.73;;;7.50;99.90;;;;;;4919834;29;20028;-75
2023/12/19 04:24:05;;;;;;;38.80;23.05;;;7.50;99.90;;;;;;4917987;29;20084;-76
2023/12/19 04:26:31;;;;;;;44.30;24.55;;;7.50;99.90;;;;;;4917761;29;20040;-76
2023/12/19 04:28:57;;;;;;;36.78;22.35;;;7.50;99.90;;;;;;4918195;29;20032;-76
2023/12/19 04:31:22;;;;;;;38.53;23.15;;;7.40;99.90;;;;;;4919019;29;20110;-76
2023/12/19 04:33:48;;;;;;;40.47;23.17;;;7.40;99.90;;;;;;4900708;29;20039;-76
2023/12/19 04:36:14;;;;;;;41.75;23.98;;;7.40;99.90;;;;;;4900561;29;20123;-76
2023/12/19 04:38:40;;;;;;;36.50;22.58;;;7.40;99.90;;;;;;4917366;29;20024;-76
2023/12/19 04:41:05;;;;;;;35.78;21.67;;;7.40;99.90;;;;;;4917066;29;20032;-76
2023/12/19 04:43:31;;;;;;;40.67;23.40;;;7.40;99.90;;;;;;4899746;29;20065;-76
2023/12/19 04:45:57;;;;;;;39.08;22.65;;;7.50;99.90;;;;;;4900288;29;20044;-76
2023/12/19 04:48:23;;;;;;;35.35;21.00;;;7.50;99.90;;;;;;4917354;29;20088;-77
2023/12/19 04:50:48;;;;;;;32.63;21.05;;;7.50;99.90;;;;;;4917081;29;20032;-76
2023/12/19 04:53:15;;;;;;;31.92;19.15;;;7.50;99.90;;;;;;4900119;29;20032;-77
2023/12/19 04:55:40;;;;;;;29.42;19.02;;;7.50;99.90;;;;;;4917358;29;20040;-77
2023/12/19 04:58:06;;;;;;;28.25;18.27;;;7.50;99.90;;;;;;4916984;29;20470;-78
2023/12/19 05:00:31;;;;;;;27.35;17.85;;;7.40;99.90;;;;;;4884248;29;20477;-78
2023/12/19 05:02:57;;;;;;;26.85;17.52;;;7.50;99.90;;;;;;4884140;29;20024;-78
2023/12/19 05:05:23;;;;;;;29.52;18.27;;;7.50;99.90;;;;;;4916373;29;20083;-79
2023/12/19 05:07:48;;;;;;;25.98;17.05;;;7.50;99.90;;;;;;4899675;29;20362;-79
2023/12/19 05:10:14;;;;;;;25.80;16.23;;;7.50;99.90;;;;;;4900121;29;20485;-79
2023/12/19 05:12:40;;;;;;;22.73;15.55;;;7.50;99.90;;;;;;4900038;29;20044;-79
2023/12/19 05:15:06;;;;;;;23.27;16.20;;;7.50;99.90;;;;;;4916946;29;20036;-79
2023/12/19 05:17:32;;;;;;;24.80;16.73;;;7.50;99.90;;;;;;4899650;29;20139;-79
2023/12/19 05:20:01;;;;;;;21.38;15.40;;;7.50;99.90;;;;;;4916759;29;20180;-79
2023/12/19 05:22:26;;;;;;;24.20;17.02;;;7.50;99.90;;;;;;4916463;29;20087;-80
2023/12/19 05:24:52;;;;;;;21.15;14.63;;;7.50;99.90;;;;;;4899640;29;20412;-79
2023/12/19 05:27:17;;;;;;;24.52;15.40;;;7.50;99.90;;;;;;4900101;29;20060;-79
2023/12/19 05:29:44;;;;;;;27.65;17.15;;;7.50;99.90;;;;;;4899513;29;20350;-79
2023/12/19 05:32:10;;;;;;;28.17;17.20;;;7.60;99.90;;;;;;4916365;29;20043;-79
2023/12/19 05:34:36;;;;;;;26.30;17.35;;;7.60;99.90;;;;;;4884264;29;20055;-79
2023/12/19 05:37:03;;;;;;;29.73;19.10;;;7.60;99.90;;;;;;4916485;29;20028;-79
2023/12/19 05:39:30;;;;;;;31.08;20.08;;;7.60;99.90;;;;;;4916480;29;20025;-79
2023/12/19 05:41:56;;;;;;;27.67;19.20;;;7.60;99.90;;;;;;4916508;29;20141;-79
2023/12/19 05:44:22;;;;;;;34.00;21.63;;;7.60;99.90;;;;;;4916766;29;20056;-79
2023/12/19 05:46:49;;;;;;;32.53;20.95;;;7.70;99.90;;;;;;4916224;29;20036;-77
2023/12/19 05:49:14;;;;;;;35.38;21.25;;;7.70;99.90;;;;;;4916252;29;20492;-78
2023/12/19 05:51:40;;;;;;;30.80;20.35;;;7.70;99.90;;;;;;4916668;29;20036;-79
2023/12/19 05:54:06;;;;;;;34.35;20.70;;;7.70;99.90;;;;;;4883857;29;20038;-79
2023/12/19 05:56:33;;;;;;;31.27;19.73;;;7.70;99.90;;;;;;4899494;29;20040;-82
2023/12/19 05:58:59;;;;;;;36.20;21.15;;;7.70;99.90;;;;;;4899388;29;20501;-80
2023/12/19 06:01:24;;;;;;;34.33;20.67;;;7.70;99.90;;;;;;4916400;29;20028;-83
2023/12/19 06:03:50;;;;;;;37.17;22.52;;;7.70;99.90;;;;;;4916911;29;20107;-81
2023/12/19 06:06:16;;;;;;;34.97;21.48;;;7.70;99.90;;;;;;4899730;29;20088;-81
2023/12/19 06:08:42;;;;;;;36.20;23.25;;;7.70;99.90;;;;;;4899543;29;20036;-81
2023/12/19 06:11:10;;;;;;;36.05;23.45;;;7.80;99.90;;;;;;4886247;29;20437;-77
2023/12/19 06:13:35;;;;;;;38.88;23.50;;;7.80;99.90;;;;;;4902549;29;20088;-80
2023/12/19 06:16:01;;;;;;;39.15;24.58;;;7.80;99.90;;;;;;4902761;29;20036;-79
2023/12/19 06:18:27;;;;;;;35.45;21.85;;;7.80;99.90;;;;;;4920005;29;20029;-81
2023/12/19 06:20:52;;;;;;;34.63;21.65;;;7.80;99.90;;;;;;4902768;29;20047;-80
2023/12/19 06:23:18;;;;;;;32.30;20.52;;;7.90;99.90;;;;;;4919560;29;20107;-81
2023/12/19 06:25:43;;;;;;;36.83;21.55;;;7.90;99.90;;;;;;4919383;29;20446;-82
2023/12/19 06:28:09;;;;;;;35.17;21.35;;;7.80;99.90;;;;;;4919800;29;20399;-81
2023/12/19 06:30:35;;;;;;;32.80;21.63;;;7.80;99.90;;;;;;4919492;29;20474;-81
2023/12/19 06:33:01;;;;;;;35.25;22.02;;;7.80;99.90;;;;;;4919153;29;20032;-80
2023/12/19 06:35:30;;;;;;;30.60;20.45;;;7.90;99.90;;;;;;4919571;29;20435;-81
2023/12/19 06:37:56;;;;;;;33.22;21.30;;;7.90;99.90;;;;;;4919074;29;20028;-83
2023/12/19 06:40:23;;;;;;;35.45;21.90;;;7.90;99.90;;;;;;4902720;29;20035;-83
2023/12/19 06:42:49;;;;;;;36.88;21.75;;;7.90;99.90;;;;;;4902360;29;20029;-85
2023/12/19 06:45:14;;;;;;;34.80;22.88;;;7.90;99.90;;;;;;4919747;29;20064;-81
2023/12/19 06:47:40;;;;;;;29.83;20.77;;;7.90;99.90;;;;;;4919250;29;20141;-83
2023/12/19 06:50:06;;;;;;;35.08;22.20;;;7.90;99.90;;;;;;4902321;29;20025;-83
2023/12/19 06:52:32;;;;;;;39.92;23.98;;;7.90;99.90;;;;;;4919520;29;20084;-83
2023/12/19 06:54:58;;;;;;;33.20;22.45;;;7.90;99.90;;;;;;4887662;29;20036;-87
2023/12/19 06:57:24;;;;;;;33.30;21.70;;;7.90;99.90;;;;;;4921148;29;20119;-84
2023/12/19 06:59:50;;;;;;;32.70;21.58;;;7.90;99.90;;;;;;4903759;29;20036;-84
2023/12/19 07:02:16;;;;;;;35.00;22.33;;;8.00;99.90;;;;;;4920028;29;20127;-85
2023/12/19 07:04:42;;;;;;;33.08;22.42;;;8.00;99.90;;;;;;4920217;29;20040;-83
2023/12/19 07:07:08;;;;;;;36.33;23.15;;;8.00;99.90;;;;;;4920048;29;20033;-86
2023/12/19 07:09:37;;;;;;;35.58;23.08;;;8.00;99.90;;;;;;4920428;29;20054;-85
2023/12/19 07:12:03;;;;;;;37.90;24.15;;;8.00;99.90;;;;;;4919672;29;20032;-85
2023/12/19 07:14:28;;;;;;;36.25;23.42;;;8.00;99.90;;;;;;4903163;29;20366;-86
2023/12/19 07:16:54;;;;;;;32.65;22.38;;;8.00;99.90;;;;;;4903225;29;20104;-83
2023/12/19 07:19:20;;;;;;;36.50;24.10;;;8.00;99.90;;;;;;4887450;29;20036;-81
2023/12/19 07:21:48;;;;;;;38.40;24.88;;;8.00;99.90;;;;;;4886489;29;20074;-84
2023/12/19 07:24:14;;;;;;;40.53;25.25;;;8.10;99.90;;;;;;4903471;29;20028;-84
2023/12/19 07:26:39;;;;;;;33.85;24.02;;;8.00;99.90;;;;;;4918940;29;20115;-80
2023/12/19 07:29:08;;;;;;;37.65;24.70;;;8.00;99.90;;;;;;4902731;29;20189;-81
2023/12/19 07:31:34;;;;;;;38.35;25.42;;;8.10;99.90;;;;;;4901842;29;20036;-82
2023/12/19 07:34:03;;;;;;;36.70;24.85;;;8.10;99.90;;;;;;4918835;29;20032;-82
2023/12/19 07:36:30;;;;;;;40.38;25.17;;;8.10;99.90;;;;;;4918481;29;20112;-85
2023/12/19 07:38:57;;;;;;;38.53;24.08;;;8.00;99.90;;;;;;4901882;29;20028;-81
2023/12/19 07:41:23;;;;;;;38.20;26.00;;;8.10;99.90;;;;;;4901212;29;20127;-82
2023/12/19 07:43:49;;;;;;;41.65;25.67;;;8.10;99.90;;;;;;4918243;29;20514;-84
2023/12/19 07:46:15;;;;;;;51.92;29.65;;;8.10;99.90;;;;;;4918349;29;20040;-83
2023/12/19 07:48:41;;;;;;;47.33;30.25;;;8.10;99.90;;;;;;4902085;29;20118;-83
2023/12/19 07:51:08;;;;;;;48.35;30.60;;;8.10;99.90;;;;;;4919363;29;20032;-83
2023/12/19 07:53:34;;;;;;;49.90;31.27;;;8.10;99.90;;;;;;4902335;29;20042;-82
2023/12/19 07:56:04;;;;;;;53.50;32.33;;;8.10;99.90;;;;;;4901670;29;20044;-84
2023/12/19 07:58:30;;;;;;;52.80;32.35;;;8.10;99.90;;;;;;4919032;29;20043;-84
2023/12/19 08:00:56;;;;;;;49.50;30.77;;;8.10;99.90;;;;;;4918452;29;20036;-85
2023/12/19 08:03:26;;;;;;;50.38;30.42;;;8.10;99.90;;;;;;4918712;29;20480;-84
2023/12/19 08:05:54;;;;;;;49.55;31.80;;;8.20;99.90;;;;;;4918643;29;20044;-85
2023/12/19 08:08:20;;;;;;;54.90;32.85;;;8.20;99.90;;;;;;4919182;29;20059;-85
2023/12/19 08:10:46;;;;;;;54.70;31.45;;;8.20;99.90;;;;;;4901853;29;20032;-85
2023/12/19 08:13:12;;;;;;;59.50;33.85;;;8.20;99.90;;;;;;4918814;29;20040;-84
2023/12/19 08:15:40;;;;;;;53.10;33.05;;;8.20;99.90;;;;;;4901883;29;20036;-84
2023/12/19 08:18:07;;;;;;;58.65;32.53;;;8.20;99.90;;;;;;4901428;29;20119;-82
2023/12/19 08:20:33;;;;;;;59.40;34.28;;;8.20;99.90;;;;;;4901624;29;20095;-81
2023/12/19 08:22:59;;;;;;;55.03;33.20;;;8.20;99.90;;;;;;4917956;29;20122;-75
2023/12/19 08:25:25;;;;;;;58.33;33.33;;;8.20;99.90;;;;;;4899872;29;20110;-76
2023/12/19 08:27:50;;;;;;;52.03;33.30;;;8.20;99.90;;;;;;4900285;29;20176;-74
2023/12/19 08:30:16;;;;;;;57.65;33.67;;;8.20;99.90;;;;;;4917222;29;20032;-75
2023/12/19 08:32:41;;;;;;;52.92;33.05;;;8.20;99.90;;;;;;4917335;29;20111;-74
2023/12/19 08:35:07;;;;;;;57.17;33.90;;;8.20;99.90;;;;;;4900101;29;20028;-75
2023/12/19 08:37:33;;;;;;;50.25;31.13;;;8.30;99.90;;;;;;4917097;29;20036;-72
2023/12/19 08:40:02;;;;;;;52.08;32.40;;;8.30;99.90;;;;;;4917061;29;20051;-73
2023/12/19 08:42:28;;;;;;;52.08;33.08;;;8.30;99.90;;;;;;4917087;29;20028;-73
2023/12/19 08:44:55;;;;;;;50.83;31.95;;;8.30;99.90;;;;;;4916759;29;20066;-77
2023/12/19 08:47:27;;;;;;;49.78;30.23;;;8.30;99.90;;;;;;4900074;29;20091;-80
2023/12/19 08:49:53;;;;;;;53.58;30.65;;;8.30;99.90;;;;;;4917513;29;20099;-80
2023/12/19 08:52:21;;;;;;;49.13;31.52;;;8.30;99.90;;;;;;4899648;29;20033;-80
2023/12/19 08:54:46;;;;;;;47.75;29.70;;;8.30;99.90;;;;;;4916988;29;20028;-79
2023/12/19 08:57:12;;;;;;;47.65;29.73;;;8.30;99.90;;;;;;4917510;29;20123;-81
2023/12/19 08:59:38;;;;;;;46.53;29.77;;;8.30;99.90;;;;;;4916966;29;20059;-79
2023/12/19 09:02:04;;;;;;;47.97;29.80;;;8.30;99.90;;;;;;4917125;29;20433;-80
2023/12/19 09:04:30;;;;;;;43.80;28.77;;;8.30;99.90;;;;;;4917047;29;20031;-80
2023/12/19 09:06:56;;;;;;;48.83;29.33;;;8.30;99.90;;;;;;4916719;29;20099;-79
2023/12/19 09:09:22;;;;;;;47.13;28.42;;;8.40;99.90;;;;;;4917159;29;20075;-80
2023/12/19 09:11:48;;;;;;;42.50;27.48;;;8.40;99.90;;;;;;4916865;29;20427;-80
2023/12/19 09:14:14;;;;;;;40.50;27.33;;;8.40;99.90;;;;;;4917203;29;20066;-79
2023/12/19 09:16:40;;;;;;;48.30;28.75;;;8.40;99.90;;;;;;4917009;29;20036;-79
2023/12/19 09:19:07;;;;;;;37.38;26.08;;;8.40;99.90;;;;;;4916982;29;20553;-80
2023/12/19 09:21:32;;;;;;;36.38;24.27;;;8.40;99.90;;;;;;4917465;29;20032;-81
2023/12/19 09:23:58;;;;;;;33.08;23.58;;;8.40;99.90;;;;;;4884600;29;20484;-79
2023/12/19 09:26:24;;;;;;;33.17;24.58;;;8.40;99.90;;;;;;4899978;29;20036;-78
2023/12/19 09:28:49;;;;;;;32.13;22.95;;;8.40;99.90;;;;;;4917584;29;20059;-80
2023/12/19 09:31:16;;;;;;;28.65;21.73;;;8.40;99.90;;;;;;4918230;29;20541;-79
2023/12/19 09:33:41;;;;;;;28.67;21.38;;;8.40;99.90;;;;;;4900413;29;20028;-77
2023/12/19 09:36:08;;;;;;;27.33;20.70;;;8.40;99.90;;;;;;4918031;29;20047;-79
2023/12/19 09:38:34;;;;;;;26.65;20.35;;;8.40;99.90;;;;;;4917531;29;20036;-78
2023/12/19 09:41:02;;;;;;;25.75;19.88;;;8.40;99.90;;;;;;4916856;29;20032;-79
2023/12/19 09:43:31;;;;;;;27.60;19.60;;;8.40;99.90;;;;;;4916501;29;20532;-79
2023/12/19 09:46:02;;;;;;;21.15;17.08;;;8.40;99.90;;;;;;4901560;29;20062;-77
2023/12/19 09:48:33;;;;;;;26.52;18.33;;;8.40;99.90;;;;;;4920660;29;20174;-78
2023/12/19 09:51:03;;;;;;;22.05;17.73;;;8.40;99.90;;;;;;4920677;29;20115;-77
2023/12/19 09:53:34;;;;;;;25.85;17.90;;;8.50;99.90;;;;;;4919972;29;20074;-79
2023/12/19 09:56:01;;;;;;;23.73;16.50;;;8.50;99.90;;;;;;4919805;29;20063;-78
2023/12/19 09:58:28;;;;;;;19.77;16.27;;;8.50;99.90;;;;;;4919903;29;20493;-77
2023/12/19 10:00:58;;;;;;;21.90;16.85;;;8.40;99.90;;;;;;4919923;29;20032;-78
2023/12/19 10:03:24;;;;;;;20.85;16.58;;;8.40;99.90;;;;;;4919786;29;20029;-79
2023/12/19 10:05:49;;;;;;;24.95;16.48;;;8.50;99.90;;;;;;4903138;29;20040;-79
2023/12/19 10:08:15;;;;;;;26.30;17.75;;;8.40;99.90;;;;;;4903203;29;20036;-79
2023/12/19 10:10:55;;;;;;;21.70;16.83;;;8.40;99.90;;;;;;4903124;29;20438;-78
2023/12/19 10:13:32;;;;;;;23.40;16.70;;;8.50;99.90;;;;;;4919736;29;20492;-77
2023/12/19 10:16:02;;;;;;;22.17;16.60;;;8.50;99.90;;;;;;4919782;29;20046;-79
2023/12/19 10:18:27;;;;;;;25.60;16.08;;;8.50;99.90;;;;;;4919698;29;20063;-78
2023/12/19 10:21:04;;;;;;;23.42;17.27;;;8.50;99.90;;;;;;4919985;29;20461;-79
2023/12/19 10:23:34;;;;;;;22.60;16.95;;;8.50;99.90;;;;;;4920120;29;20107;-79
2023/12/19 10:25:59;;;;;;;24.73;17.33;;;8.50;99.90;;;;;;4919213;29;20486;-78
2023/12/19 10:28:25;;;;;;;22.13;16.10;;;8.50;99.90;;;;;;4919870;29;20051;-76
2023/12/19 10:31:08;;;;;;;24.38;16.52;;;8.50;99.90;;;;;;4902748;29;20124;-78
2023/12/19 10:33:49;;;;;;;19.00;15.48;;;8.50;99.90;;;;;;4919917;29;20044;-79
2023/12/19 10:36:27;;;;;;;21.83;16.05;;;8.50;99.90;;;;;;4919845;29;20040;-77
2023/12/19 10:38:54;;;;;;;23.35;16.52;;;8.50;99.90;;;;;;4919700;29;20469;-77
2023/12/19 10:41:28;;;;;;;22.75;15.88;;;8.50;99.90;;;;;;4919283;29;20028;-76
2023/12/19 10:43:57;;;;;;;22.42;15.75;;;8.50;99.90;;;;;;4919186;29;20112;-73
2023/12/19 10:46:24;;;;;;;23.90;16.00;;;8.50;99.90;;;;;;4902440;29;20067;-74
2023/12/19 10:48:54;;;;;;;23.17;15.65;;;8.60;99.90;;;;;;4919056;29;20024;-74
2023/12/19 10:51:42;;;;;;;24.15;17.15;;;8.50;99.90;;;;;;4919127;29;20143;-74
2023/12/19 10:54:15;;;;;;;22.33;16.30;;;8.60;99.90;;;;;;4919174;29;20051;-74
2023/12/19 10:57:00;;;;;;;22.30;15.93;;;8.60;99.90;;;;;;4918881;29;20080;-74
2023/12/19 10:59:31;;;;;;;20.77;15.45;;;8.60;99.90;;;;;;4919045;29;20039;-74
2023/12/19 11:02:04;;;;;;;19.20;14.45;;;8.50;99.90;;;;;;4918831;29;20059;-75
2023/12/19 11:04:31;;;;;;;;;;;8.60;99.90;;;;;;4919486;29;20046;-75
2023/12/19 11:07:02;;;;;;;21.13;14.55;;;8.50;99.90;;;;;;4918508;29;19915;-74
2023/12/19 11:09:35;;;;;;;21.80;14.57;;;8.50;99.90;;;;;;4918493;29;20104;-76
2023/12/19 11:12:01;;;;;;;20.10;14.32;;;8.50;99.90;;;;;;4901522;29;20109;-76
2023/12/19 11:14:27;;;;;;;17.92;13.63;;;8.60;99.90;;;;;;4918695;29;20036;-74
2023/12/19 11:17:19;;;;;;;18.60;14.05;;;8.60;99.90;;;;;;4901677;29;20051;-73
2023/12/19 11:20:13;;;;;;;15.95;12.93;;;8.60;99.90;;;;;;4902164;29;20053;-72
2023/12/19 11:22:59;;;;;;;19.60;13.75;;;8.60;99.90;;;;;;4918587;29;20029;-72
2023/12/19 11:25:33;;;;;;;17.67;13.35;;;8.60;99.90;;;;;;4918453;29;20072;-74
2023/12/19 11:28:02;;;;;;;18.27;13.68;;;8.60;99.90;;;;;;4918830;29;20417;-73
2023/12/19 11:30:40;;;;;;;19.20;14.02;;;8.60;99.90;;;;;;4918508;29;20028;-74
2023/12/19 11:33:07;;;;;;;15.65;12.77;;;8.60;99.90;;;;;;4901847;29;20124;-73
2023/12/19 11:35:33;;;;;;;17.85;13.23;;;8.60;99.90;;;;;;4918624;29;20043;-74
2023/12/19 11:38:21;;;;;;;17.10;13.05;;;8.60;99.90;;;;;;4918859;29;20115;-74
2023/12/19 11:40:50;;;;;;;16.25;12.60;;;8.60;99.90;;;;;;4918671;29;20036;-74
2023/12/19 11:43:28;;;;;;;18.25;12.93;;;8.70;99.90;;;;;;4918286;29;20032;-75
2023/12/19 11:46:03;;;;;;;18.02;12.73;;;8.60;99.90;;;;;;4918116;29;20055;-74
2023/12/19 11:48:44;;;;;;;17.42;13.25;;;8.60;99.90;;;;;;4918189;29;20155;-74
2023/12/19 11:51:13;;;;;;;17.00;12.55;;;8.60;99.90;;;;;;4918722;29;20032;-74
2023/12/19 11:53:41;;;;;;;15.80;12.52;;;8.70;99.90;;;;;;4918023;29;20039;-74
2023/12/19 11:56:12;;;;;;;15.77;13.10;;;8.60;99.90;;;;;;4918301;29;20088;-74
2023/12/19 11:58:48;;;;;;;15.60;11.63;;;8.70;99.90;;;;;;4918694;29;20032;-74
2023/12/19 12:01:14;;;;;;;15.80;11.52;;;8.70;99.90;;;;;;4918730;29;20168;-74
2023/12/19 12:03:40;;;;;;;14.35;11.77;;;8.70;99.90;;;;;;4919643;29;20486;-74
2023/12/19 12:06:08;;;;;;;16.15;11.27;;;8.70;99.90;;;;;;4919140;29;20075;-74
2023/12/19 12:08:34;;;;;;;13.50;10.55;;;8.70;99.90;;;;;;4901764;29;20028;-73
2023/12/19 12:11:02;;;;;;;14.40;10.93;;;8.70;99.90;;;;;;4918577;29;20036;-73
2023/12/19 12:13:29;;;;;;;11.90;10.43;;;8.70;99.90;;;;;;4917804;29;20036;-73
2023/12/19 12:15:59;;;;;;;12.18;9.82;;;8.70;99.90;;;;;;4900559;29;20389;-73
2023/12/19 12:18:26;;;;;;;12.70;9.80;;;8.70;99.90;;;;;;4917631;29;20138;-73
2023/12/19 12:21:06;;;;;;;12.98;10.13;;;8.70;99.90;;;;;;4917568;29;20020;-73
2023/12/19 12:23:32;;;;;;;12.52;9.77;;;8.70;99.90;;;;;;4917515;29;20050;-73
2023/12/19 12:25:58;;;;;;;12.27;9.98;;;8.70;99.90;;;;;;4917120;29;20044;-73
2023/12/19 12:28:28;;;;;;;12.10;10.10;;;8.80;99.90;;;;;;4917366;29;20039;-73
2023/12/19 12:30:55;;;;;;;11.23;9.48;;;8.80;99.90;;;;;;4917644;29;20114;-73
2023/12/19 12:33:23;;;;;;;13.15;10.10;;;8.80;99.90;;;;;;4917172;29;20441;-73
2023/12/19 12:35:49;;;;;;;10.55;9.40;;;8.80;99.90;;;;;;4917374;29;20091;-73
2023/12/19 12:38:17;;;;;;;13.15;9.48;;;8.80;99.90;;;;;;4917201;29;20040;-73